createdAt,value
2017-12-27T00:00:55.908Z,988.14
2017-12-27T00:01:54.227Z,988.12
2017-12-27T00:02:54.231Z,988.03
2017-12-27T00:03:54.239Z,988.03
2017-12-27T00:04:55.900Z,987.95
2017-12-27T00:05:54.191Z,987.93
2017-12-27T00:06:54.219Z,987.92
2017-12-27T00:07:54.177Z,987.89
2017-12-27T00:08:54.181Z,987.84
2017-12-27T00:09:54.163Z,987.85
2017-12-27T00:10:54.163Z,987.81
2017-12-27T00:11:55.912Z,987.85
2017-12-27T00:12:54.158Z,987.84
2017-12-27T00:13:54.156Z,987.84
2017-12-27T00:14:54.134Z,987.81
2017-12-27T00:15:55.931Z,987.79
2017-12-27T00:16:55.934Z,987.80
2017-12-27T00:17:54.118Z,987.72
2017-12-27T00:18:55.962Z,987.71
2017-12-27T00:19:54.080Z,987.67
2017-12-27T00:20:58.005Z,987.64
2017-12-27T00:21:54.091Z,987.54
2017-12-27T00:22:55.906Z,987.61
2017-12-27T00:23:55.929Z,987.54
2017-12-27T00:24:55.916Z,987.53
2017-12-27T00:25:54.037Z,987.53
2017-12-27T00:26:54.029Z,987.53
2017-12-27T00:27:54.051Z,987.54
2017-12-27T00:28:54.082Z,987.52
2017-12-27T00:29:55.931Z,987.51
2017-12-27T00:30:53.983Z,987.49
2017-12-27T00:31:54.007Z,987.58
2017-12-27T00:32:53.996Z,987.51
2017-12-27T00:33:53.967Z,987.50
2017-12-27T00:34:54.004Z,987.45
2017-12-27T00:35:53.961Z,987.46
2017-12-27T00:36:53.952Z,987.48
2017-12-27T00:37:53.939Z,987.44
2017-12-27T00:38:53.918Z,987.37
2017-12-27T00:39:53.919Z,987.43
2017-12-27T00:40:53.905Z,987.27
2017-12-27T00:41:53.925Z,987.26
2017-12-27T00:42:53.930Z,987.26
2017-12-27T00:43:55.432Z,987.17
2017-12-27T00:44:53.876Z,987.15
2017-12-27T00:45:53.910Z,987.18
2017-12-27T00:46:53.856Z,987.09
2017-12-27T00:47:55.413Z,987.10
2017-12-27T00:48:53.878Z,986.99
2017-12-27T00:49:55.442Z,986.94
2017-12-27T00:50:53.847Z,986.87
2017-12-27T00:51:53.855Z,986.89
2017-12-27T00:52:55.457Z,986.82
2017-12-27T00:53:53.825Z,986.80
2017-12-27T00:54:53.794Z,986.83
2017-12-27T00:55:53.822Z,986.76
2017-12-27T00:56:54.785Z,986.73
2017-12-27T00:58:01.428Z,986.66
2017-12-27T00:58:53.764Z,986.70
2017-12-27T00:59:53.756Z,986.63
2017-12-27T01:00:53.754Z,986.61
2017-12-27T01:01:05.748Z,986.55
2017-12-27T01:02:53.755Z,986.54
2017-12-27T01:03:53.710Z,986.45
2017-12-27T01:04:53.740Z,986.44
2017-12-27T01:05:53.734Z,986.38
2017-12-27T01:06:53.698Z,986.34
2017-12-27T01:07:53.699Z,986.28
2017-12-27T01:08:53.696Z,986.22
2017-12-27T01:09:53.698Z,986.24
2017-12-27T01:10:53.682Z,986.21
2017-12-27T01:11:53.696Z,986.19
2017-12-27T01:12:53.654Z,986.25
2017-12-27T01:13:53.664Z,986.20
2017-12-27T01:14:55.515Z,986.17
2017-12-27T01:15:57.448Z,986.15
2017-12-27T01:16:55.457Z,986.15
2017-12-27T01:17:55.469Z,986.14
2017-12-27T01:18:57.444Z,986.08
2017-12-27T01:19:55.444Z,986.07
2017-12-27T01:20:53.581Z,986.05
2017-12-27T01:21:53.609Z,986.05
2017-12-27T01:22:55.450Z,986.02
2017-12-27T01:23:53.570Z,986.05
2017-12-27T01:24:53.554Z,986.02
2017-12-27T01:25:53.569Z,985.92
2017-12-27T01:26:53.534Z,985.91
2017-12-27T01:27:54.555Z,985.88
2017-12-27T01:28:53.531Z,985.83
2017-12-27T01:29:53.538Z,985.84
2017-12-27T01:30:53.512Z,985.81
2017-12-27T01:31:55.453Z,985.77
2017-12-27T01:32:53.548Z,985.79
2017-12-27T01:33:55.447Z,985.69
2017-12-27T01:34:53.488Z,985.68
2017-12-27T01:35:53.493Z,985.70
2017-12-27T01:36:53.471Z,985.57
2017-12-27T01:37:53.465Z,985.56
2017-12-27T01:38:54.956Z,985.56
2017-12-27T01:39:56.975Z,985.48
2017-12-27T01:40:53.417Z,985.52
2017-12-27T01:41:53.432Z,985.44
2017-12-27T01:42:53.448Z,985.42
2017-12-27T01:43:53.411Z,985.39
2017-12-27T01:44:53.405Z,985.33
2017-12-27T01:45:53.398Z,985.34
2017-12-27T01:46:53.403Z,985.30
2017-12-27T01:47:53.359Z,985.26
2017-12-27T01:48:53.368Z,985.23
2017-12-27T01:49:53.383Z,985.19
2017-12-27T01:50:54.966Z,985.16
2017-12-27T01:51:53.346Z,985.13
2017-12-27T01:52:53.341Z,985.15
2017-12-27T01:53:53.316Z,985.10
2017-12-27T01:54:53.302Z,985.15
2017-12-27T01:55:53.308Z,985.07
2017-12-27T01:56:53.290Z,985.06
2017-12-27T01:57:53.300Z,985.07
2017-12-27T01:58:53.279Z,985.05
2017-12-27T01:59:53.284Z,985.00
2017-12-27T02:00:54.981Z,984.99
2017-12-27T02:01:54.968Z,984.96
2017-12-27T02:02:53.255Z,984.92
2017-12-27T02:03:53.223Z,984.86
2017-12-27T02:04:53.249Z,984.82
2017-12-27T02:05:54.947Z,984.80
2017-12-27T02:06:53.209Z,984.77
2017-12-27T02:07:53.198Z,984.76
2017-12-27T02:08:54.964Z,984.74
2017-12-27T02:09:53.181Z,984.67
2017-12-27T02:10:53.183Z,984.59
2017-12-27T02:11:53.183Z,984.53
2017-12-27T02:12:53.181Z,984.49
2017-12-27T02:13:53.184Z,984.46
2017-12-27T02:14:53.163Z,984.44
2017-12-27T02:15:53.150Z,984.38
2017-12-27T02:16:53.142Z,984.36
2017-12-27T02:17:53.141Z,984.36
2017-12-27T02:18:54.967Z,984.32
2017-12-27T02:19:53.104Z,984.30
2017-12-27T02:20:53.100Z,984.33
2017-12-27T02:21:53.089Z,984.23
2017-12-27T02:22:53.078Z,984.23
2017-12-27T02:23:53.093Z,984.13
2017-12-27T02:24:53.070Z,984.10
2017-12-27T02:25:53.072Z,984.05
2017-12-27T02:26:53.042Z,984.00
2017-12-27T02:27:53.053Z,984.00
2017-12-27T02:28:53.043Z,983.98
2017-12-27T02:29:53.026Z,983.99
2017-12-27T02:30:53.021Z,983.95
2017-12-27T02:31:54.990Z,983.93
2017-12-27T02:32:53.013Z,983.93
2017-12-27T02:33:54.961Z,983.89
2017-12-27T02:34:52.990Z,983.88
2017-12-27T02:35:52.988Z,983.80
2017-12-27T02:36:52.988Z,983.78
2017-12-27T02:37:52.953Z,983.77
2017-12-27T02:38:52.984Z,983.76
2017-12-27T02:39:52.957Z,983.75
2017-12-27T02:40:52.960Z,983.70
2017-12-27T02:41:52.935Z,983.63
2017-12-27T02:42:52.907Z,983.68
2017-12-27T02:43:52.908Z,983.62
2017-12-27T02:44:52.915Z,983.64
2017-12-27T02:45:52.903Z,983.59
2017-12-27T02:46:54.502Z,983.57
2017-12-27T02:47:52.872Z,983.60
2017-12-27T02:48:52.908Z,983.52
2017-12-27T02:49:54.455Z,983.49
2017-12-27T02:50:52.853Z,983.44
2017-12-27T02:51:52.845Z,983.47
2017-12-27T02:52:54.454Z,983.45
2017-12-27T02:53:52.836Z,983.38
2017-12-27T02:54:54.493Z,983.47
2017-12-27T02:55:54.474Z,983.37
2017-12-27T02:56:52.819Z,983.42
2017-12-27T02:57:52.817Z,983.32
2017-12-27T02:58:52.816Z,983.39
2017-12-27T02:59:54.486Z,983.26
2017-12-27T03:00:52.787Z,983.23
2017-12-27T03:01:52.770Z,983.16
2017-12-27T03:02:52.749Z,983.25
2017-12-27T03:03:52.773Z,983.14
2017-12-27T03:04:52.732Z,983.16
2017-12-27T03:05:52.744Z,983.15
2017-12-27T03:06:52.721Z,983.09
2017-12-27T03:07:52.703Z,983.09
2017-12-27T03:08:52.721Z,982.99
2017-12-27T03:09:52.698Z,982.97
2017-12-27T03:10:52.739Z,983.01
2017-12-27T03:11:52.705Z,983.06
2017-12-27T03:12:52.689Z,983.03
2017-12-27T03:13:52.668Z,983.00
2017-12-27T03:14:52.690Z,982.94
2017-12-27T03:15:54.493Z,982.94
2017-12-27T03:16:52.632Z,982.92
2017-12-27T03:17:52.629Z,982.89
2017-12-27T03:18:52.616Z,982.94
2017-12-27T03:19:52.644Z,982.96
2017-12-27T03:20:53.602Z,982.86
2017-12-27T03:21:52.606Z,982.81
2017-12-27T03:22:54.480Z,982.81
2017-12-27T03:23:52.582Z,982.75
2017-12-27T03:24:52.573Z,982.72
2017-12-27T03:25:52.579Z,982.63
2017-12-27T03:26:52.553Z,982.72
2017-12-27T03:27:52.549Z,982.59
2017-12-27T03:28:54.498Z,982.60
2017-12-27T03:29:52.539Z,982.49
2017-12-27T03:30:52.524Z,982.52
2017-12-27T03:31:54.502Z,982.47
2017-12-27T03:32:52.515Z,982.47
2017-12-27T03:33:52.500Z,982.45
2017-12-27T03:34:52.512Z,982.43
2017-12-27T03:35:52.468Z,982.44
2017-12-27T03:36:54.009Z,982.35
2017-12-27T03:37:52.496Z,982.32
2017-12-27T03:38:52.465Z,982.33
2017-12-27T03:39:52.472Z,982.29
2017-12-27T03:40:52.445Z,982.35
2017-12-27T03:41:52.445Z,982.21
2017-12-27T03:42:53.977Z,982.17
2017-12-27T03:43:52.421Z,982.13
2017-12-27T03:44:52.417Z,982.15
2017-12-27T03:45:52.406Z,982.13
2017-12-27T03:46:53.979Z,982.12
2017-12-27T03:47:52.374Z,982.12
2017-12-27T03:48:52.371Z,982.09
2017-12-27T03:49:52.361Z,982.06
2017-12-27T03:50:52.364Z,982.08
2017-12-27T03:51:52.360Z,982.02
2017-12-27T03:52:52.334Z,981.96
2017-12-27T03:53:52.353Z,981.97
2017-12-27T03:54:52.363Z,981.96
2017-12-27T03:55:52.332Z,981.90
2017-12-27T03:56:52.302Z,981.89
2017-12-27T03:57:55.988Z,981.82
2017-12-27T03:58:52.306Z,981.75
2017-12-27T03:59:52.311Z,981.68
2017-12-27T04:00:52.315Z,981.66
2017-12-27T04:01:53.978Z,981.60
2017-12-27T04:02:52.304Z,981.57
2017-12-27T04:03:52.261Z,981.58
2017-12-27T04:04:52.251Z,981.55
2017-12-27T04:05:52.232Z,981.56
2017-12-27T04:06:52.247Z,981.54
2017-12-27T04:07:52.249Z,981.59
2017-12-27T04:08:52.249Z,981.55
2017-12-27T04:09:56.006Z,981.53
2017-12-27T04:10:52.211Z,981.55
2017-12-27T04:11:52.184Z,981.48
2017-12-27T04:12:52.179Z,981.47
2017-12-27T04:13:52.170Z,981.42
2017-12-27T04:14:52.186Z,981.43
2017-12-27T04:15:53.989Z,981.30
2017-12-27T04:16:52.140Z,981.30
2017-12-27T04:17:52.139Z,981.20
2017-12-27T04:18:52.147Z,981.11
2017-12-27T04:19:53.998Z,981.08
2017-12-27T04:20:52.134Z,981.04
2017-12-27T04:21:52.116Z,980.97
2017-12-27T04:22:52.126Z,980.88
2017-12-27T04:23:53.996Z,980.88
2017-12-27T04:24:52.107Z,980.88
2017-12-27T04:25:52.075Z,980.93
2017-12-27T04:26:52.055Z,980.91
2017-12-27T04:27:52.067Z,980.89
2017-12-27T04:28:52.056Z,980.89
2017-12-27T04:29:52.071Z,980.87
2017-12-27T04:30:52.037Z,980.84
2017-12-27T04:31:52.068Z,980.90
2017-12-27T04:32:52.031Z,980.88
2017-12-27T04:33:52.040Z,980.85
2017-12-27T04:34:52.034Z,980.83
2017-12-27T04:35:52.004Z,980.84
2017-12-27T04:36:52.014Z,980.87
2017-12-27T04:37:52.033Z,980.82
2017-12-27T04:38:53.564Z,980.82
2017-12-27T04:39:53.504Z,980.79
2017-12-27T04:40:51.967Z,980.75
2017-12-27T04:41:51.943Z,980.79
2017-12-27T04:42:51.942Z,980.77
2017-12-27T04:43:51.958Z,980.65
2017-12-27T04:44:51.956Z,980.73
2017-12-27T04:45:51.930Z,980.65
2017-12-27T04:46:51.917Z,980.65
2017-12-27T04:47:53.544Z,980.61
2017-12-27T04:48:51.890Z,980.64
2017-12-27T04:49:51.892Z,980.65
2017-12-27T04:50:51.891Z,980.70
2017-12-27T04:51:55.524Z,980.69
2017-12-27T04:52:51.862Z,980.70
2017-12-27T04:53:51.854Z,980.70
2017-12-27T04:54:51.863Z,980.70
2017-12-27T04:55:59.494Z,980.64
2017-12-27T04:56:51.835Z,980.67
2017-12-27T04:57:53.560Z,980.65
2017-12-27T04:58:51.801Z,980.65
2017-12-27T04:59:51.820Z,980.67
2017-12-27T05:00:51.804Z,980.71
2017-12-27T05:01:51.796Z,980.69
2017-12-27T05:02:55.520Z,980.67
2017-12-27T05:03:51.768Z,980.62
2017-12-27T05:04:53.538Z,980.66
2017-12-27T05:05:53.511Z,980.63
2017-12-27T05:06:51.742Z,980.61
2017-12-27T05:07:51.735Z,980.56
2017-12-27T05:08:51.722Z,980.55
2017-12-27T05:09:51.719Z,980.56
2017-12-27T05:10:53.524Z,980.51
2017-12-27T05:11:53.526Z,980.45
2017-12-27T05:12:51.693Z,980.40
2017-12-27T05:13:51.683Z,980.44
2017-12-27T05:14:51.684Z,980.42
2017-12-27T05:15:51.676Z,980.43
2017-12-27T05:16:51.675Z,980.39
2017-12-27T05:17:51.648Z,980.34
2017-12-27T05:18:51.652Z,980.40
2017-12-27T05:19:51.643Z,980.38
2017-12-27T05:20:51.663Z,980.33
2017-12-27T05:21:51.616Z,980.33
2017-12-27T05:22:53.514Z,980.32
2017-12-27T05:23:51.615Z,980.31
2017-12-27T05:24:51.598Z,980.31
2017-12-27T05:25:53.509Z,980.26
2017-12-27T05:26:51.574Z,980.26
2017-12-27T05:27:51.635Z,980.31
2017-12-27T05:28:51.575Z,980.24
2017-12-27T05:29:51.576Z,980.25
2017-12-27T05:30:53.531Z,980.28
2017-12-27T05:31:51.541Z,980.23
2017-12-27T05:32:51.549Z,980.23
2017-12-27T05:33:51.549Z,980.22
2017-12-27T05:34:51.532Z,980.19
2017-12-27T05:35:51.528Z,980.18
2017-12-27T05:36:51.517Z,980.27
2017-12-27T05:37:51.506Z,980.19
2017-12-27T05:38:51.525Z,980.23
2017-12-27T05:39:53.042Z,980.24
2017-12-27T05:40:51.478Z,980.24
2017-12-27T05:41:51.458Z,980.16
2017-12-27T05:42:51.485Z,980.14
2017-12-27T05:43:51.446Z,980.20
2017-12-27T05:44:51.457Z,980.14
2017-12-27T05:45:51.441Z,980.13
2017-12-27T05:46:51.418Z,980.20
2017-12-27T05:47:51.425Z,980.17
2017-12-27T05:48:51.418Z,980.19
2017-12-27T05:49:51.406Z,980.12
2017-12-27T05:50:51.399Z,980.18
2017-12-27T05:51:51.479Z,980.14
2017-12-27T05:52:51.408Z,980.21
2017-12-27T05:53:51.375Z,980.17
2017-12-27T05:54:52.359Z,980.13
2017-12-27T05:55:51.365Z,980.16
2017-12-27T05:56:53.072Z,980.15
2017-12-27T05:57:51.370Z,980.19
2017-12-27T05:58:53.029Z,980.15
2017-12-27T05:59:53.016Z,980.14
2017-12-27T06:00:53.098Z,980.15
2017-12-27T06:01:51.314Z,980.13
2017-12-27T06:02:51.293Z,980.14
2017-12-27T06:03:51.300Z,980.14
2017-12-27T06:04:53.063Z,980.14
2017-12-27T06:05:51.318Z,980.11
2017-12-27T06:06:51.252Z,980.15
2017-12-27T06:07:51.264Z,980.13
2017-12-27T06:08:51.292Z,980.12
2017-12-27T06:09:53.052Z,980.12
2017-12-27T06:10:53.065Z,980.08
2017-12-27T06:11:51.270Z,980.02
2017-12-27T06:12:53.052Z,980.03
2017-12-27T06:13:53.070Z,980.15
2017-12-27T06:14:53.056Z,980.10
2017-12-27T06:15:51.214Z,979.99
2017-12-27T06:16:51.213Z,980.04
2017-12-27T06:17:51.197Z,979.95
2017-12-27T06:18:51.215Z,980.00
2017-12-27T06:19:51.226Z,980.00
2017-12-27T06:20:51.156Z,979.96
2017-12-27T06:21:51.148Z,979.95
2017-12-27T06:22:51.133Z,979.92
2017-12-27T06:23:51.139Z,980.02
2017-12-27T06:24:51.136Z,979.86
2017-12-27T06:25:55.060Z,979.92
2017-12-27T06:26:51.112Z,979.93
2017-12-27T06:27:51.091Z,979.92
2017-12-27T06:28:51.101Z,979.93
2017-12-27T06:29:55.064Z,979.99
2017-12-27T06:30:51.099Z,979.89
2017-12-27T06:31:51.073Z,979.89
2017-12-27T06:32:51.068Z,979.94
2017-12-27T06:33:52.558Z,979.88
2017-12-27T06:34:51.063Z,979.85
2017-12-27T06:35:51.046Z,979.80
2017-12-27T06:36:51.042Z,979.81
2017-12-27T06:37:51.027Z,979.84
2017-12-27T06:38:51.002Z,979.82
2017-12-27T06:39:51.015Z,979.82
2017-12-27T06:40:50.994Z,979.81
2017-12-27T06:41:50.994Z,979.79
2017-12-27T06:42:50.993Z,979.68
2017-12-27T06:43:51.022Z,979.73
2017-12-27T06:44:50.980Z,979.72
2017-12-27T06:45:52.540Z,979.67
2017-12-27T06:46:50.967Z,979.66
2017-12-27T06:47:52.552Z,979.68
2017-12-27T06:48:52.604Z,979.65
2017-12-27T06:49:50.951Z,979.69
2017-12-27T06:50:50.936Z,979.64
2017-12-27T06:51:50.920Z,979.57
2017-12-27T06:52:52.560Z,979.70
2017-12-27T06:53:02.912Z,979.66
2017-12-27T06:54:50.914Z,979.61
2017-12-27T06:55:50.916Z,979.53
2017-12-27T06:56:50.872Z,979.60
2017-12-27T06:57:50.883Z,979.60
2017-12-27T06:58:54.559Z,979.57
2017-12-27T06:59:50.861Z,979.61
2017-12-27T07:00:52.616Z,979.59
2017-12-27T07:01:52.538Z,979.56
2017-12-27T07:02:50.855Z,979.47
2017-12-27T07:03:50.825Z,979.53
2017-12-27T07:04:54.587Z,979.46
2017-12-27T07:05:50.802Z,979.52
2017-12-27T07:06:50.805Z,979.43
2017-12-27T07:07:50.762Z,979.46
2017-12-27T07:08:50.795Z,979.49
2017-12-27T07:09:50.759Z,979.42
2017-12-27T07:10:50.748Z,979.39
2017-12-27T07:11:52.609Z,979.40
2017-12-27T07:12:52.580Z,979.44
2017-12-27T07:13:50.744Z,979.50
2017-12-27T07:14:50.759Z,979.47
2017-12-27T07:15:50.706Z,979.52
2017-12-27T07:16:50.694Z,979.45
2017-12-27T07:17:50.701Z,979.40
2017-12-27T07:18:50.684Z,979.39
2017-12-27T07:19:50.680Z,979.37
2017-12-27T07:20:52.580Z,979.41
2017-12-27T07:21:54.573Z,979.40
2017-12-27T07:22:50.651Z,979.34
2017-12-27T07:23:50.666Z,979.38
2017-12-27T07:24:50.638Z,979.33
2017-12-27T07:25:52.572Z,979.32
2017-12-27T07:26:50.608Z,979.30
2017-12-27T07:27:50.625Z,979.32
2017-12-27T07:28:52.584Z,979.27
2017-12-27T07:29:50.590Z,979.28
2017-12-27T07:30:50.573Z,979.27
2017-12-27T07:31:52.086Z,979.28
2017-12-27T07:32:50.547Z,979.26
2017-12-27T07:33:50.558Z,979.31
2017-12-27T07:34:50.563Z,979.32
2017-12-27T07:35:50.564Z,979.32
2017-12-27T07:36:50.529Z,979.29
2017-12-27T07:37:50.517Z,979.25
2017-12-27T07:38:50.519Z,979.29
2017-12-27T07:39:50.518Z,979.26
2017-12-27T07:40:50.529Z,979.27
2017-12-27T07:41:50.488Z,979.28
2017-12-27T07:42:50.466Z,979.27
2017-12-27T07:43:52.109Z,979.28
2017-12-27T07:44:50.464Z,979.32
2017-12-27T07:45:50.459Z,979.26
2017-12-27T07:46:50.476Z,979.34
2017-12-27T07:47:52.131Z,979.23
2017-12-27T07:48:50.425Z,979.26
2017-12-27T07:49:50.427Z,979.22
2017-12-27T07:50:50.417Z,979.27
2017-12-27T07:51:50.419Z,979.23
2017-12-27T07:52:50.396Z,979.17
2017-12-27T07:53:52.071Z,979.25
2017-12-27T07:54:52.107Z,979.25
2017-12-27T07:55:50.384Z,979.21
2017-12-27T07:56:50.368Z,979.29
2017-12-27T07:57:50.335Z,979.21
2017-12-27T07:58:50.352Z,979.19
2017-12-27T07:59:50.323Z,979.10
2017-12-27T08:00:52.086Z,979.16
2017-12-27T08:01:50.310Z,979.05
2017-12-27T08:02:52.069Z,979.04
2017-12-27T08:03:50.284Z,979.04
2017-12-27T08:04:50.293Z,979.00
2017-12-27T08:05:50.293Z,979.06
2017-12-27T08:06:54.085Z,979.00
2017-12-27T08:07:50.251Z,979.06
2017-12-27T08:08:50.270Z,979.05
2017-12-27T08:09:50.255Z,978.97
2017-12-27T08:10:52.060Z,978.99
2017-12-27T08:11:50.237Z,979.00
2017-12-27T08:12:50.230Z,978.97
2017-12-27T08:13:50.226Z,978.95
2017-12-27T08:14:52.095Z,978.95
2017-12-27T08:15:50.218Z,978.97
2017-12-27T08:16:50.206Z,978.93
2017-12-27T08:17:50.174Z,978.94
2017-12-27T08:18:50.160Z,978.96
2017-12-27T08:19:50.183Z,978.93
2017-12-27T08:20:52.077Z,978.94
2017-12-27T08:21:50.145Z,978.96
2017-12-27T08:22:52.073Z,978.91
2017-12-27T08:23:50.129Z,978.94
2017-12-27T08:24:50.147Z,978.91
2017-12-27T08:25:50.125Z,978.95
2017-12-27T08:26:50.088Z,978.96
2017-12-27T08:27:50.106Z,978.90
2017-12-27T08:28:51.602Z,978.92
2017-12-27T08:29:50.079Z,978.90
2017-12-27T08:30:50.064Z,978.91
2017-12-27T08:31:51.577Z,978.90
2017-12-27T08:32:50.053Z,978.84
2017-12-27T08:33:50.056Z,978.91
2017-12-27T08:34:51.603Z,978.85
2017-12-27T08:35:51.601Z,978.88
2017-12-27T08:36:50.024Z,978.87
2017-12-27T08:37:50.034Z,978.81
2017-12-27T08:38:50.004Z,978.81
2017-12-27T08:39:50.012Z,978.82
2017-12-27T08:40:50.004Z,978.79
2017-12-27T08:41:49.976Z,978.79
2017-12-27T08:42:49.968Z,978.80
2017-12-27T08:43:49.971Z,978.81
2017-12-27T08:44:49.943Z,978.78
2017-12-27T08:45:49.959Z,978.76
2017-12-27T08:46:50.927Z,978.82
2017-12-27T08:47:49.948Z,978.81
2017-12-27T08:48:51.589Z,978.81
2017-12-27T08:49:51.585Z,978.84
2017-12-27T08:50:53.595Z,978.92
2017-12-27T08:51:51.630Z,978.83
2017-12-27T08:52:49.882Z,978.91
2017-12-27T08:53:49.884Z,978.81
2017-12-27T08:54:51.590Z,978.80
2017-12-27T08:55:49.862Z,978.84
2017-12-27T08:56:49.882Z,978.88
2017-12-27T08:57:49.856Z,978.87
2017-12-27T08:58:49.861Z,978.87
2017-12-27T08:59:49.860Z,978.89
2017-12-27T09:00:49.861Z,978.85
2017-12-27T09:01:49.832Z,978.84
2017-12-27T09:02:49.803Z,978.85
2017-12-27T09:03:51.584Z,978.85
2017-12-27T09:04:51.585Z,978.87
2017-12-27T09:05:49.786Z,978.80
2017-12-27T09:06:49.811Z,978.88
2017-12-27T09:07:53.613Z,978.83
2017-12-27T09:08:53.597Z,978.79
2017-12-27T09:09:49.755Z,978.78
2017-12-27T09:10:49.746Z,978.79
2017-12-27T09:11:51.608Z,978.89
2017-12-27T09:12:49.742Z,978.66
2017-12-27T09:13:49.732Z,978.74
2017-12-27T09:14:49.725Z,978.74
2017-12-27T09:15:51.605Z,978.73
2017-12-27T09:16:49.690Z,978.78
2017-12-27T09:17:49.683Z,978.64
2017-12-27T09:18:49.684Z,978.67
2017-12-27T09:19:49.682Z,978.68
2017-12-27T09:20:49.681Z,978.71
2017-12-27T09:21:49.669Z,978.67
2017-12-27T09:22:49.652Z,978.75
2017-12-27T09:23:49.648Z,978.76
2017-12-27T09:24:49.655Z,978.77
2017-12-27T09:25:49.644Z,978.76
2017-12-27T09:26:49.630Z,978.79
2017-12-27T09:27:49.609Z,978.78
2017-12-27T09:28:49.590Z,978.77
2017-12-27T09:29:49.603Z,978.75
2017-12-27T09:30:49.585Z,978.86
2017-12-27T09:31:49.595Z,978.89
2017-12-27T09:32:49.562Z,978.84
2017-12-27T09:33:49.565Z,978.77
2017-12-27T09:34:49.549Z,978.81
2017-12-27T09:35:49.555Z,978.84
2017-12-27T09:36:49.558Z,978.88
2017-12-27T09:37:49.532Z,978.76
2017-12-27T09:38:49.521Z,978.81
2017-12-27T09:39:49.520Z,978.84
2017-12-27T09:40:49.523Z,978.85
2017-12-27T09:41:49.499Z,978.86
2017-12-27T09:42:49.480Z,978.87
2017-12-27T09:43:49.488Z,978.84
2017-12-27T09:44:49.490Z,978.87
2017-12-27T09:45:49.479Z,978.85
2017-12-27T09:46:49.459Z,978.88
2017-12-27T09:47:49.478Z,978.82
2017-12-27T09:48:49.462Z,978.84
2017-12-27T09:49:49.445Z,978.83
2017-12-27T09:50:49.458Z,978.80
2017-12-27T09:51:49.448Z,978.81
2017-12-27T09:52:49.429Z,978.83
2017-12-27T09:53:49.419Z,978.77
2017-12-27T09:54:49.396Z,978.76
2017-12-27T09:55:49.389Z,978.75
2017-12-27T09:56:49.399Z,978.72
2017-12-27T09:58:49.396Z,978.74
2017-12-27T09:59:51.106Z,978.74
2017-12-27T10:00:49.371Z,978.75
2017-12-27T10:01:49.346Z,978.74
2017-12-27T10:02:49.371Z,978.72
2017-12-27T10:03:49.332Z,978.68
2017-12-27T10:04:49.334Z,978.72
2017-12-27T10:05:49.339Z,978.74
2017-12-27T10:06:49.332Z,978.73
2017-12-27T10:07:49.367Z,978.74
2017-12-27T10:08:49.304Z,978.73
2017-12-27T10:09:49.282Z,978.71
2017-12-27T10:10:49.276Z,978.66
2017-12-27T10:11:49.269Z,978.65
2017-12-27T10:12:49.262Z,978.60
2017-12-27T10:13:49.260Z,978.68
2017-12-27T10:14:49.248Z,978.70
2017-12-27T10:15:49.241Z,978.64
2017-12-27T10:16:49.227Z,978.66
2017-12-27T10:17:49.222Z,978.67
2017-12-27T10:18:49.250Z,978.68
2017-12-27T10:19:49.235Z,978.60
2017-12-27T10:20:49.227Z,978.66
2017-12-27T10:21:49.201Z,978.60
2017-12-27T10:22:49.189Z,978.57
2017-12-27T10:23:49.196Z,978.56
2017-12-27T10:24:51.125Z,978.54
2017-12-27T10:25:49.170Z,978.58
2017-12-27T10:26:49.185Z,978.57
2017-12-27T10:27:51.121Z,978.53
2017-12-27T10:31:19.500Z,978.48
2017-12-27T10:32:13.468Z,978.48
2017-12-27T10:34:57.350Z,978.46
2017-12-27T10:35:57.256Z,978.49
2017-12-27T10:36:57.233Z,978.44
2017-12-27T10:37:57.269Z,978.34
2017-12-27T10:38:57.856Z,978.38
2017-12-27T10:39:57.654Z,978.35
2017-12-27T10:40:57.358Z,978.34
2017-12-27T10:41:57.195Z,978.35
2017-12-27T10:42:57.213Z,978.35
2017-12-27T10:43:57.183Z,978.34
2017-12-27T10:44:57.173Z,978.37
2017-12-27T10:45:57.158Z,978.37
2017-12-27T10:46:57.879Z,978.37
2017-12-27T10:47:57.154Z,978.27
2017-12-27T10:48:57.146Z,978.23
2017-12-27T10:49:57.148Z,978.23
2017-12-27T10:50:57.138Z,978.18
2017-12-27T10:51:57.144Z,978.17
2017-12-27T10:52:57.266Z,978.18
2017-12-27T10:53:57.149Z,978.22
2017-12-27T10:54:57.172Z,978.25
2017-12-27T10:55:57.106Z,978.30
2017-12-27T10:56:57.179Z,978.26
2017-12-27T10:57:57.097Z,978.28
2017-12-27T10:58:57.106Z,978.27
2017-12-27T10:59:57.119Z,978.28
2017-12-27T11:00:57.111Z,978.24
2017-12-27T11:01:57.158Z,978.27
2017-12-27T11:02:57.068Z,978.28
2017-12-27T11:03:57.033Z,978.21
2017-12-27T11:04:57.040Z,978.16
2017-12-27T11:05:57.022Z,978.25
2017-12-27T11:06:57.012Z,978.24
2017-12-27T11:07:57.043Z,978.23
2017-12-27T11:08:57.000Z,978.27
2017-12-27T11:09:56.995Z,978.28
2017-12-27T11:10:59.819Z,978.24
2017-12-27T11:11:56.976Z,978.26
2017-12-27T11:12:56.990Z,978.28
2017-12-27T11:13:56.995Z,978.27
2017-12-27T11:14:56.993Z,978.27
2017-12-27T11:15:56.990Z,978.28
2017-12-27T11:16:56.966Z,978.38
2017-12-27T11:17:56.965Z,978.33
2017-12-27T11:18:56.935Z,978.31
2017-12-27T11:19:56.926Z,978.34
2017-12-27T11:20:56.942Z,978.28
2017-12-27T11:21:56.928Z,978.32
2017-12-27T11:22:56.933Z,978.28
2017-12-27T11:23:56.912Z,978.27
2017-12-27T11:24:57.831Z,978.24
2017-12-27T11:25:56.891Z,978.26
2017-12-27T11:26:56.896Z,978.21
2017-12-27T11:27:56.891Z,978.25
2017-12-27T11:28:56.872Z,978.23
2017-12-27T11:29:56.862Z,978.22
2017-12-27T11:30:56.854Z,978.18
2017-12-27T11:31:56.864Z,978.19
2017-12-27T11:32:56.862Z,978.14
2017-12-27T11:33:59.856Z,978.12
2017-12-27T11:34:56.833Z,978.13
2017-12-27T11:35:56.818Z,978.12
2017-12-27T11:36:56.810Z,978.14
2017-12-27T11:37:56.805Z,978.12
2017-12-27T11:38:57.325Z,978.13
2017-12-27T11:39:56.803Z,978.11
2017-12-27T11:40:56.775Z,978.11
2017-12-27T11:41:56.798Z,978.13
2017-12-27T11:42:56.810Z,978.10
2017-12-27T11:43:56.762Z,978.07
2017-12-27T11:44:56.812Z,978.12
2017-12-27T11:45:56.763Z,978.10
2017-12-27T11:46:56.755Z,978.06
2017-12-27T11:47:56.741Z,978.09
2017-12-27T11:48:56.747Z,978.06
2017-12-27T11:49:56.746Z,978.05
2017-12-27T11:50:56.761Z,978.08
2017-12-27T11:51:56.747Z,978.03
2017-12-27T11:52:56.723Z,978.02
2017-12-27T11:53:56.704Z,978.00
2017-12-27T11:54:56.752Z,977.95
2017-12-27T11:55:56.722Z,977.99
2017-12-27T11:56:56.701Z,977.94
2017-12-27T11:57:56.695Z,977.93
2017-12-27T11:58:56.680Z,977.88
2017-12-27T11:59:56.702Z,977.97
2017-12-27T12:00:57.346Z,977.94
2017-12-27T12:01:56.673Z,977.91
2017-12-27T12:02:56.668Z,977.87
2017-12-27T12:03:56.674Z,977.91
2017-12-27T12:04:56.647Z,977.87
2017-12-27T12:05:56.616Z,977.83
2017-12-27T12:06:56.724Z,977.82
2017-12-27T12:07:56.645Z,977.81
2017-12-27T12:08:56.613Z,977.84
2017-12-27T12:09:56.684Z,977.83
2017-12-27T12:10:56.604Z,977.83
2017-12-27T12:11:56.662Z,977.80
2017-12-27T12:12:56.608Z,977.75
2017-12-27T12:13:56.685Z,977.81
2017-12-27T12:14:56.746Z,977.84
2017-12-27T12:15:57.392Z,977.82
2017-12-27T12:16:56.588Z,977.77
2017-12-27T12:17:56.591Z,977.77
2017-12-27T12:18:56.569Z,977.76
2017-12-27T12:19:57.340Z,977.73
2017-12-27T12:20:56.562Z,977.75
2017-12-27T12:21:56.549Z,977.73
2017-12-27T12:22:56.543Z,977.68
2017-12-27T12:23:56.505Z,977.69
2017-12-27T12:24:56.494Z,977.64
2017-12-27T12:25:56.515Z,977.67
2017-12-27T12:26:56.520Z,977.62
2017-12-27T12:27:56.489Z,977.64
2017-12-27T12:28:56.525Z,977.65
2017-12-27T12:29:56.509Z,977.61
2017-12-27T12:30:56.461Z,977.65
2017-12-27T12:31:56.451Z,977.63
2017-12-27T12:32:56.438Z,977.65
2017-12-27T12:33:56.446Z,977.63